Time;durP1;ratioP1;P1;durP2;ratioP2;P2;SDS_P1;SDS_P2;PMS_P1;PMS_P2;Temp;Humidity;BMP_temperature;BMP_pressure;BME280_temperature;BME280_humidity;BME280_pressure;Samples;Min_cycle;Max_cycle;Signal;HPM_P1;HPM_P2
2022/06/19 00:00:34;;;;;;;;;15.75;11.75;;;;;30.71;39.35;99976.13;5013674;28;45416;-84
2022/06/19 00:03:03;;;;;;;;;14.25;14.25;;;;;30.45;39.07;99973.13;4996231;28;45659;-83
2022/06/19 00:05:28;;;;;;;;;18.00;15.25;;;;;30.05;39.79;99932.16;5014753;28;45533;-82
2022/06/19 00:07:55;;;;;;;;;15.00;13.25;;;;;29.89;40.84;99974.34;4996063;28;48079;-83
2022/06/19 00:10:20;;;;;;;;;15.50;14.00;;;;;29.71;41.27;99961.13;5014306;28;45824;-81
2022/06/19 00:12:46;;;;;;;;;16.50;15.00;;;;;29.51;42.04;99993.25;5014298;28;45644;-82
2022/06/19 00:15:11;;;;;;;;;12.50;12.50;;;;;29.28;42.18;100017.72;5014487;28;45615;-83
2022/06/19 00:17:37;;;;;;;;;15.50;15.50;;;;;29.08;42.89;100066.78;5014196;28;45569;-83
2022/06/19 00:20:04;;;;;;;;;15.50;14.75;;;;;28.64;43.64;100027.91;5014367;28;46234;-84
2022/06/19 00:22:30;;;;;;;;;17.00;14.25;;;;;28.45;42.78;100034.56;5014194;28;45643;-84
2022/06/19 00:24:56;;;;;;;;;13.00;13.00;;;;;28.06;43.98;100034.25;5014575;28;45659;-82
2022/06/19 00:27:23;;;;;;;;;13.75;12.25;;;;;27.84;45.11;100031.38;5029320;28;47534;-82
2022/06/19 00:29:48;;;;;;;;;17.75;14.00;;;;;27.64;45.33;100062.41;5014264;28;45942;-84
2022/06/19 00:32:14;;;;;;;;;12.00;12.00;;;;;27.45;45.37;100029.34;4996015;28;45695;-84
2022/06/19 00:34:40;;;;;;;;;11.50;11.00;;;;;27.25;44.79;100032.38;5014346;28;45446;-84
2022/06/19 00:37:05;;;;;;;;;12.75;11.25;;;;;27.05;45.49;100018.41;4995857;28;47503;-84
2022/06/19 00:42:53;;;;;;;;;11.00;10.75;;;;;26.52;46.80;100026.38;5013874;28;45611;-84
2022/06/19 00:45:38;;;;;;;;;13.25;12.75;;;;;26.36;46.70;100006.31;4996170;28;45682;-85
2022/06/19 00:48:24;;;;;;;;;10.25;10.00;;;;;26.16;47.57;100037.97;5013913;28;45794;-84
2022/06/19 00:50:51;;;;;;;;;9.50;9.00;;;;;25.96;47.39;100015.88;5013500;28;45742;-84
2022/06/19 00:53:29;;;;;;;;;12.00;9.75;;;;;25.84;46.88;100040.78;5013781;28;45476;-83
2022/06/19 00:55:57;;;;;;;;;9.25;7.25;;;;;25.64;46.79;100066.19;5013858;28;45562;-84
2022/06/19 00:58:27;;;;;;;;;11.50;11.00;;;;;25.38;48.29;100037.66;5013388;28;46745;-83
2022/06/19 01:00:57;;;;;;;;;11.75;10.00;;;;;25.27;48.56;100043.72;5013739;28;45636;-83
2022/06/19 01:03:37;;;;;;;;;10.25;8.50;;;;;25.18;48.33;100045.03;5013982;28;45643;-83
2022/06/19 01:06:04;;;;;;;;;10.00;7.00;;;;;25.05;49.19;100057.50;5014034;28;45598;-83
2022/06/19 01:08:30;;;;;;;;;5.75;4.75;;;;;24.90;48.93;100050.81;5028728;28;47399;-84
2022/06/19 01:10:56;;;;;;;;;7.50;7.50;;;;;24.80;49.03;100031.66;5013631;28;46438;-83
2022/06/19 01:13:25;;;;;;;;;9.25;7.25;;;;;24.69;48.59;100070.69;5016101;28;45604;-83
2022/06/19 01:15:51;;;;;;;;;9.75;8.00;;;;;24.58;49.42;100039.19;5017143;28;45830;-83
2022/06/19 01:18:16;;;;;;;;;7.25;6.75;;;;;24.50;49.11;100052.84;4999048;28;48517;-82
2022/06/19 01:20:43;;;;;;;;;8.25;8.00;;;;;24.34;48.79;100039.94;5017162;28;46124;-83
2022/06/19 01:23:44;;;;;;;;;11.75;10.50;;;;;24.24;48.51;100037.69;5016860;28;45680;-83
2022/06/19 01:26:14;;;;;;;;;10.75;9.25;;;;;24.07;48.77;100040.00;4958770;28;45903;-84
2022/06/19 01:28:54;;;;;;;;;10.00;9.00;;;;;23.98;48.39;100065.34;4975017;28;45584;-84
2022/06/19 01:31:26;;;;;;;;;13.00;11.00;;;;;23.82;48.39;100068.44;4975005;28;46348;-85
2022/06/19 01:34:26;;;;;;;;;10.00;8.75;;;;;23.64;48.76;100046.88;4975630;28;45777;-83
2022/06/19 01:37:02;;;;;;;;;12.75;12.00;;;;;23.51;49.22;100057.56;4975570;28;45874;-84
2022/06/19 01:39:34;;;;;;;;;13.00;12.25;;;;;23.32;49.59;100057.31;4975352;28;46857;-84
2022/06/19 01:42:01;;;;;;;;;13.00;10.00;;;;;23.14;50.01;100054.44;4975096;28;45930;-83
2022/06/19 01:44:27;;;;;;;;;11.00;10.25;;;;;23.00;50.13;100068.81;4975235;28;45805;-83
2022/06/19 01:46:52;;;;;;;;;11.00;10.75;;;;;22.86;49.89;100077.81;4975394;28;45808;-84
2022/06/19 01:49:17;;;;;;;;;8.25;7.00;;;;;22.70;49.80;100062.94;4976238;28;45678;-84
2022/06/19 01:51:43;;;;;;;;;13.50;10.50;;;;;22.50;50.24;100064.75;4975329;28;45770;-82
2022/06/19 01:54:17;;;;;;;;;15.50;12.75;;;;;22.29;51.01;100047.00;4975306;28;45812;-83
2022/06/19 01:56:43;;;;;;;;;13.50;11.75;;;;;22.17;51.88;100045.91;4958459;28;45979;-85
2022/06/19 01:59:10;;;;;;;;;11.25;10.50;;;;;22.07;52.01;100032.94;4974977;28;45637;-83
2022/06/19 02:01:37;;;;;;;;;10.25;10.25;;;;;22.00;52.39;100056.06;4977043;28;48169;-84
2022/06/19 02:04:06;;;;;;;;;11.75;9.75;;;;;21.90;52.02;100036.06;5016793;28;45530;-85
2022/06/19 02:06:37;;;;;;;;;12.00;10.75;;;;;21.86;51.75;100064.16;5016572;28;45732;-83
2022/06/19 02:09:05;;;;;;;;;14.25;12.50;;;;;21.77;52.75;100087.47;5016183;28;45564;-84
2022/06/19 02:11:33;;;;;;;;;11.50;11.00;;;;;21.75;52.65;100095.66;5017475;28;46019;-84
2022/06/19 02:14:00;;;;;;;;;16.50;11.00;;;;;21.70;52.12;100118.63;5018130;28;45570;-83
2022/06/19 02:16:26;;;;;;;;;14.00;12.00;;;;;21.65;51.78;100169.00;5018424;28;45619;-84
2022/06/19 02:18:53;;;;;;;;;12.25;11.50;;;;;21.56;52.17;100148.84;5017397;28;45623;-83
2022/06/19 02:21:22;;;;;;;;;15.50;14.25;;;;;21.50;52.69;100142.44;5031534;28;48288;-83
2022/06/19 02:23:49;;;;;;;;;15.75;10.00;;;;;21.38;52.19;100125.28;5015227;28;45661;-84
2022/06/19 02:26:14;;;;;;;;;14.50;13.00;;;;;21.38;51.87;100135.94;5015939;28;45591;-83
2022/06/19 02:28:45;;;;;;;;;13.75;11.75;;;;;21.36;52.27;100146.00;5015949;28;46507;-84
2022/06/19 02:31:11;;;;;;;;;13.25;12.50;;;;;21.28;52.44;100132.78;5016136;28;45662;-84
2022/06/19 02:33:44;;;;;;;;;12.75;10.25;;;;;21.25;52.16;100154.47;5015926;28;45560;-84
2022/06/19 02:36:44;;;;;;;;;14.00;8.75;;;;;21.21;52.65;100153.22;5016011;28;45609;-84
2022/06/19 02:39:32;;;;;;;;;12.00;11.00;;;;;21.11;52.53;100134.81;5015776;28;45603;-84
2022/06/19 02:42:01;;;;;;;;;13.75;11.50;;;;;21.03;54.08;100121.63;5015790;28;45698;-84
2022/06/19 02:44:33;;;;;;;;;10.25;9.25;;;;;20.97;52.68;100140.19;5015830;28;45532;-84
2022/06/19 02:46:58;;;;;;;;;15.25;9.75;;;;;20.91;54.03;100158.59;5015872;28;45601;-84
2022/06/19 02:49:24;;;;;;;;;10.75;10.25;;;;;20.86;53.13;100320.78;5015784;28;46438;-84
2022/06/19 02:51:49;;;;;;;;;12.50;12.25;;;;;20.64;53.61;100419.34;4997472;28;47158;-84
2022/06/19 02:54:14;;;;;;;;;15.50;14.50;;;;;20.58;54.75;100268.31;5015764;28;45599;-84
2022/06/19 02:56:40;;;;;;;;;12.50;12.50;;;;;20.52;53.77;100268.03;4997654;28;45882;-84
2022/06/19 02:59:05;;;;;;;;;15.50;13.75;;;;;20.43;54.80;100314.38;5015749;28;45535;-85
2022/06/19 03:01:30;;;;;;;;;17.00;14.50;;;;;20.47;55.71;100331.63;5015748;28;45625;-84
2022/06/19 03:03:56;;;;;;;;;11.75;11.75;;;;;20.39;54.63;100321.06;5015650;28;45470;-84
2022/06/19 03:06:21;;;;;;;;;14.25;12.25;;;;;20.42;54.32;100365.09;5015654;28;45597;-84
2022/06/19 03:08:47;;;;;;;;;15.75;14.25;;;;;20.35;55.00;100318.94;5015303;28;46445;-84
2022/06/19 03:11:12;;;;;;;;;14.00;12.00;;;;;20.27;55.31;100292.34;5015386;28;46224;-84
2022/06/19 03:13:37;;;;;;;;;16.75;13.50;;;;;20.19;54.99;100330.47;5015616;28;45659;-83
2022/06/19 03:16:07;;;;;;;;;12.50;11.25;;;;;20.19;55.07;100279.13;5015310;28;45516;-82
2022/06/19 03:18:34;;;;;;;;;13.25;11.25;;;;;20.15;54.90;100265.34;5015209;28;46886;-84
2022/06/19 03:21:00;;;;;;;;;13.50;13.00;;;;;20.09;54.61;100285.50;5015307;28;46037;-85
2022/06/19 03:23:25;;;;;;;;;11.50;10.75;;;;;20.10;55.43;100340.38;5015449;28;45606;-85
2022/06/19 03:29:12;;;;;;;;;15.00;12.00;;;;;19.96;54.74;100279.97;5014987;28;45684;-83
2022/06/19 03:31:38;;;;;;;;;15.25;13.75;;;;;19.87;55.36;100277.53;5015428;28;45617;-85
2022/06/19 03:34:03;;;;;;;;;13.00;11.00;;;;;19.90;55.95;100282.50;4997229;28;45599;-85
2022/06/19 03:36:29;;;;;;;;;12.50;11.00;;;;;19.86;56.52;100295.34;4996971;28;45953;-84
2022/06/19 03:38:55;;;;;;;;;11.25;10.75;;;;;19.86;55.92;100270.56;5015012;28;46335;-84
2022/06/19 03:41:20;;;;;;;;;14.25;12.00;;;;;19.94;56.13;100311.22;5015112;28;45544;-83
2022/06/19 03:43:46;;;;;;;;;13.00;10.00;;;;;19.89;55.51;100304.78;4996966;28;45870;-84
2022/06/19 03:46:15;;;;;;;;;13.25;10.75;;;;;19.95;55.53;100326.19;4996935;28;45505;-83
2022/06/19 03:48:43;;;;;;;;;10.50;10.00;;;;;19.93;56.38;100320.19;4996633;28;47687;-85
2022/06/19 03:51:09;;;;;;;;;11.75;10.00;;;;;19.94;56.46;100313.06;5015150;28;46431;-84
2022/06/19 03:53:35;;;;;;;;;15.00;14.00;;;;;19.93;56.01;100282.13;5016565;28;45418;-83
2022/06/19 03:59:22;;;;;;;;;16.50;14.75;;;;;19.85;55.66;100275.06;5017883;28;45561;-83
2022/06/19 04:01:47;;;;;;;;;16.25;15.00;;;;;19.82;55.99;100269.25;4997349;28;48350;-84
2022/06/19 04:04:12;;;;;;;;;17.50;15.75;;;;;19.88;55.79;100317.25;4996726;28;46101;-84
2022/06/19 04:06:41;;;;;;;;;15.25;13.50;;;;;19.93;55.39;100393.81;4996581;28;45667;-83
2022/06/19 04:09:08;;;;;;;;;15.25;13.75;;;;;19.97;55.33;100462.44;5014318;28;46566;-84
2022/06/19 04:11:34;;;;;;;;;15.50;14.00;;;;;19.99;54.81;100401.94;4996249;28;48004;-84
2022/06/19 04:13:59;;;;;;;;;16.50;13.00;;;;;20.13;55.78;100313.41;5014582;28;45623;-84
2022/06/19 04:16:32;;;;;;;;;18.75;16.75;;;;;20.18;56.55;100216.28;5014536;28;45563;-84
2022/06/19 04:18:59;;;;;;;;;18.00;16.75;;;;;20.18;57.43;100163.91;5014784;28;46388;-83
2022/06/19 04:21:27;;;;;;;;;14.00;13.50;;;;;20.17;57.56;100185.38;5014118;28;46255;-84
2022/06/19 04:23:55;;;;;;;;;18.50;15.50;;;;;20.17;58.77;100166.75;5014550;28;45706;-83
2022/06/19 04:29:42;;;;;;;;;18.25;15.00;;;;;20.16;57.87;100191.69;5013852;28;45532;-83
2022/06/19 04:32:08;;;;;;;;;14.25;12.50;;;;;20.24;57.54;100208.41;5012418;28;47463;-83
2022/06/19 04:34:33;;;;;;;;;14.00;12.25;;;;;20.18;57.36;100209.13;5013877;28;46011;-84
2022/06/19 04:36:59;;;;;;;;;12.50;12.00;;;;;20.20;57.50;100201.78;5015010;28;45622;-84
2022/06/19 04:39:24;;;;;;;;;14.75;11.75;;;;;20.20;57.44;100207.09;5014228;28;46297;-83
2022/06/19 04:41:49;;;;;;;;;17.75;13.00;;;;;20.10;57.84;100215.34;5014230;28;45605;-84
2022/06/19 04:44:17;;;;;;;;;16.25;15.25;;;;;20.20;57.43;100235.53;5029060;28;45664;-84
2022/06/19 04:46:43;;;;;;;;;13.75;12.50;;;;;20.19;57.68;100215.28;5029256;28;45784;-84
2022/06/19 04:49:10;;;;;;;;;15.25;14.00;;;;;20.20;57.27;100252.34;5032451;28;47841;-84
2022/06/19 04:51:35;;;;;;;;;15.75;10.50;;;;;20.16;56.63;100205.81;5032564;28;48216;-84
2022/06/19 04:54:01;;;;;;;;;13.50;12.00;;;;;20.17;56.96;100204.00;5017783;28;45666;-83
2022/06/19 04:59:48;;;;;;;;;11.50;10.00;;;;;20.12;56.83;100215.19;5018051;28;45962;-84
2022/06/19 05:02:14;;;;;;;;;13.50;13.00;;;;;20.07;56.60;100207.75;5019271;28;45703;-85
2022/06/19 05:04:39;;;;;;;;;9.75;9.75;;;;;20.00;57.24;100158.09;5019328;28;45678;-85
2022/06/19 05:07:05;;;;;;;;;10.25;9.50;;;;;19.99;57.43;100194.50;5017364;28;45525;-85
2022/06/19 05:09:30;;;;;;;;;9.75;9.75;;;;;20.05;56.86;100248.81;5000408;28;46564;-85
2022/06/19 05:15:17;;;;;;;;;11.00;10.00;;;;;20.17;56.64;100270.50;5023900;28;45843;-84
2022/06/19 05:17:43;;;;;;;;;10.25;8.25;;;;;20.18;56.93;100174.56;5024982;28;45623;-86
2022/06/19 05:20:09;;;;;;;;;10.00;8.50;;;;;20.20;57.83;100131.78;5025102;28;45561;-83
2022/06/19 05:22:34;;;;;;;;;9.75;8.25;;;;;20.17;57.46;100146.28;5023784;28;45784;-83
2022/06/19 05:24:59;;;;;;;;;10.00;8.25;;;;;20.13;57.17;100141.53;5023914;28;45586;-84
2022/06/19 05:27:25;;;;;;;;;9.25;9.00;;;;;20.09;57.76;100094.00;5005641;28;45804;-85
2022/06/19 05:29:50;;;;;;;;;9.25;7.75;;;;;20.11;58.28;100030.81;5005897;28;47149;-85
2022/06/19 05:32:15;;;;;;;;;8.25;7.75;;;;;19.98;58.08;100054.56;5023886;28;45639;-84
2022/06/19 05:34:41;;;;;;;;;9.25;9.25;;;;;19.90;58.28;100086.56;5024258;28;45623;-85
2022/06/19 05:37:06;;;;;;;;;7.25;7.00;;;;;19.89;58.68;100103.53;5024140;28;45955;-84
2022/06/19 05:39:32;;;;;;;;;10.25;6.50;;;;;19.84;58.77;100145.78;5024336;28;45558;-83
2022/06/19 05:45:19;;;;;;;;;9.00;7.75;;;;;19.83;58.81;100172.53;5016645;28;45690;-77
2022/06/19 05:47:44;;;;;;;;;8.50;7.00;;;;;19.82;58.27;100189.50;5017335;28;45755;-77
2022/06/19 05:50:11;;;;;;;;;7.25;6.00;;;;;19.82;57.94;100170.88;4998772;28;47691;-77
2022/06/19 05:52:37;;;;;;;;;7.00;6.75;;;;;19.83;58.25;100149.44;5017041;28;45663;-76
2022/06/19 05:55:02;;;;;;;;;5.00;4.25;;;;;19.82;58.56;100117.69;5016887;28;45649;-77
2022/06/19 05:57:28;;;;;;;;;6.00;5.75;;;;;19.80;58.10;100079.84;5018124;28;45643;-77
2022/06/19 05:59:54;;;;;;;;;6.50;5.25;;;;;19.70;58.15;100051.69;5016349;28;45685;-77
2022/06/19 06:02:22;;;;;;;;;6.00;5.00;;;;;19.69;58.05;100043.91;5018939;28;45532;-77
2022/06/19 06:04:48;;;;;;;;;7.00;5.25;;;;;19.70;58.00;100054.34;5019047;28;45797;-77
2022/06/19 06:07:14;;;;;;;;;1.00;1.00;;;;;19.66;57.31;100057.53;5017580;28;45512;-77
2022/06/19 06:09:39;;;;;;;;;5.75;4.25;;;;;19.61;57.57;100049.28;4998010;28;46521;-76
2022/06/19 06:15:27;;;;;;;;;8.25;4.75;;;;;19.55;57.31;100018.13;5015166;28;45859;-77
2022/06/19 06:17:52;;;;;;;;;5.75;5.25;;;;;19.56;57.60;100049.84;5016418;28;45745;-77
2022/06/19 06:20:18;;;;;;;;;6.00;5.50;;;;;19.54;57.01;100142.19;5015259;28;45566;-77
2022/06/19 06:22:43;;;;;;;;;8.00;6.00;;;;;19.54;57.69;100154.69;5015444;28;46455;-77
2022/06/19 06:25:11;;;;;;;;;4.50;4.00;;;;;19.53;57.32;100164.50;5015270;28;45692;-77
2022/06/19 06:30:58;;;;;;;;;6.25;4.00;;;;;19.66;56.91;100203.75;5014517;28;46076;-79
2022/06/19 06:33:24;;;;;;;;;8.25;7.50;;;;;19.69;57.08;100200.75;5014673;28;46117;-77
2022/06/19 06:35:50;;;;;;;;;6.75;5.00;;;;;19.75;57.50;100255.03;5015582;28;45742;-80
2022/06/19 06:38:15;;;;;;;;;7.25;6.50;;;;;19.82;57.22;100238.19;5015732;28;45542;-83
2022/06/19 06:40:41;;;;;;;;;9.75;8.00;;;;;19.86;56.75;100218.22;5014710;28;46310;-81
2022/06/19 06:43:07;;;;;;;;;6.50;5.25;;;;;19.88;57.20;100180.81;4996874;28;47185;-80
2022/06/19 06:45:32;;;;;;;;;5.50;5.50;;;;;19.89;56.70;100193.09;5029827;28;45667;-80
2022/06/19 06:47:58;;;;;;;;;7.00;6.50;;;;;19.89;56.80;100225.00;5015162;28;45649;-77
2022/06/19 06:50:23;;;;;;;;;5.50;4.50;;;;;19.83;56.89;100141.47;4996283;28;47349;-83
2022/06/19 06:52:48;;;;;;;;;6.50;4.75;;;;;19.87;57.40;100132.09;5014666;28;46171;-84
2022/06/19 06:55:15;;;;;;;;;7.50;5.00;;;;;19.89;58.05;100049.50;5014502;28;45432;-82
2022/06/19 07:01:13;;;;;;;;;7.50;5.00;;;;;19.76;57.44;100068.75;5013236;28;46180;-82
2022/06/19 07:03:38;;;;;;;;;9.75;6.00;;;;;19.71;57.77;100095.03;5015422;28;45826;-82
2022/06/19 07:06:04;;;;;;;;;8.00;6.00;;;;;19.64;57.98;100055.09;5015430;28;45642;-84
2022/06/19 07:08:29;;;;;;;;;8.00;4.75;;;;;19.62;57.68;100073.03;4998133;28;45845;-85
2022/06/19 07:10:54;;;;;;;;;5.00;5.00;;;;;19.63;58.14;100093.31;4996724;28;47203;-83
2022/06/19 07:13:20;;;;;;;;;6.75;5.25;;;;;19.67;57.94;100123.00;5014986;28;45592;-84
2022/06/19 07:15:46;;;;;;;;;5.00;5.00;;;;;19.68;57.85;100161.88;5016203;28;45594;-84
2022/06/19 07:18:11;;;;;;;;;8.50;4.75;;;;;19.63;57.39;100236.00;5017583;28;45613;-85
2022/06/19 07:20:37;;;;;;;;;5.75;4.50;;;;;19.59;57.90;100224.06;4997114;28;47388;-87
2022/06/19 07:23:04;;;;;;;;;5.25;4.50;;;;;19.54;58.02;100237.06;5015226;28;45717;-83
2022/06/19 07:25:30;;;;;;;;;5.25;5.00;;;;;19.43;58.08;100250.72;5014288;28;45789;-84
2022/06/19 07:31:17;;;;;;;;;5.00;4.75;;;;;19.42;57.96;100287.09;5015822;28;45946;-83
2022/06/19 07:33:43;;;;;;;;;4.50;4.50;;;;;19.40;57.48;100384.72;5017554;28;45623;-85
2022/06/19 07:36:14;;;;;;;;;6.75;5.25;;;;;19.32;57.46;100416.66;5016556;28;45707;-88
2022/06/19 07:38:40;;;;;;;;;7.50;5.00;;;;;19.27;57.60;100339.31;5015675;28;45664;-79
2022/06/19 07:41:05;;;;;;;;;6.00;5.00;;;;;19.27;57.87;100353.38;5015017;28;46349;-84
2022/06/19 07:52:22;;;;;;;;;8.00;6.00;;;;;19.46;57.51;100319.47;5014263;28;46116;-84
2022/06/19 07:55:08;;;;;;;;;7.00;5.75;;;;;19.53;57.16;100312.47;5019474;28;46676;-92
2022/06/19 07:57:34;;;;;;;;;4.50;3.75;;;;;19.55;57.14;100329.88;5014169;28;45595;-83
2022/06/19 07:59:59;;;;;;;;;7.00;6.00;;;;;19.62;57.54;100417.75;5014264;28;45604;-83
2022/06/19 08:02:25;;;;;;;;;6.25;5.00;;;;;19.62;57.48;100479.72;5014363;28;45575;-84
2022/06/19 08:04:51;;;;;;;;;7.25;6.25;;;;;19.63;57.13;100438.00;5014269;28;46328;-84
2022/06/19 08:07:17;;;;;;;;;6.00;5.50;;;;;19.55;57.12;100385.69;5014345;28;45438;-82
2022/06/19 08:09:43;;;;;;;;;7.50;6.00;;;;;19.50;56.86;100388.03;5014420;28;45650;-84
2022/06/19 08:12:09;;;;;;;;;7.50;6.50;;;;;19.55;56.98;100371.59;4996040;28;47607;-82
2022/06/19 08:14:35;;;;;;;;;9.25;7.00;;;;;19.55;57.36;100327.22;5013597;28;46288;-82
2022/06/19 08:17:01;;;;;;;;;11.25;7.25;;;;;19.46;57.22;100283.09;5013949;28;45695;-84
2022/06/19 08:19:26;;;;;;;;;6.00;6.00;;;;;19.45;57.46;100284.09;4996116;28;45589;-83
2022/06/19 08:21:52;;;;;;;;;7.50;6.25;;;;;19.59;57.94;100294.00;5012728;28;45734;-82
2022/06/19 08:24:18;;;;;;;;;5.25;5.00;;;;;19.60;57.65;100286.84;5013883;28;45599;-82
2022/06/19 08:33:07;;;;;;;;;7.75;6.00;;;;;19.88;56.73;100261.41;5013766;28;46171;-82
2022/06/19 08:35:49;;;;;;;;;7.00;5.00;;;;;19.93;56.99;100234.28;5013815;28;45697;-82
2022/06/19 08:38:20;;;;;;;;;8.50;7.50;;;;;19.92;56.78;100217.47;5013901;28;45503;-81
2022/06/19 08:41:04;;;;;;;;;7.50;6.25;;;;;19.97;56.63;100211.66;5028804;28;45655;-81
2022/06/19 08:44:04;;;;;;;;;8.75;6.75;;;;;19.99;56.85;100201.66;5013890;28;45998;-82
2022/06/19 08:46:44;;;;;;;;;6.50;6.00;;;;;19.98;56.76;100198.16;5013462;28;46233;-83
2022/06/19 08:49:15;;;;;;;;;8.75;7.50;;;;;20.01;56.61;100189.84;4995815;28;45731;-82
2022/06/19 08:52:12;;;;;;;;;7.00;6.25;;;;;20.05;56.54;100166.34;5013877;28;45546;-82
2022/06/19 08:55:15;;;;;;;;;9.75;8.00;;;;;20.06;56.54;100190.13;4995636;28;48499;-82
2022/06/19 09:01:04;;;;;;;;;7.25;7.25;;;;;20.12;56.33;100191.22;5013128;28;45714;-82
2022/06/19 09:07:10;;;;;;;;;8.75;8.75;;;;;20.10;56.61;100211.84;5012830;28;45689;-81
2022/06/19 09:10:12;;;;;;;;;10.50;9.25;;;;;20.23;56.49;100238.69;5028311;28;48079;-84
2022/06/19 09:12:56;;;;;;;;;11.00;9.00;;;;;20.28;56.47;100248.78;5013218;28;45676;-85
2022/06/19 09:15:33;;;;;;;;;16.25;10.25;;;;;20.28;56.15;100278.06;5013393;28;45704;-83
2022/06/19 09:17:58;;;;;;;;;10.25;7.75;;;;;20.41;55.68;100312.88;5013362;28;46616;-83
2022/06/19 09:20:35;;;;;;;;;9.00;8.00;;;;;20.50;55.88;100317.13;5013027;28;45846;-83
2022/06/19 09:23:22;;;;;;;;;14.25;11.25;;;;;20.61;55.83;100332.69;5013317;28;45659;-82
2022/06/19 09:25:59;;;;;;;;;12.00;9.50;;;;;20.69;55.81;100327.25;5013142;28;45604;-83
2022/06/19 09:28:52;;;;;;;;;14.75;11.00;;;;;20.72;55.38;100318.94;5013077;28;46843;-82
2022/06/19 09:31:32;;;;;;;;;12.00;12.00;;;;;20.84;55.53;100316.63;4995018;28;47372;-81
2022/06/19 09:34:20;;;;;;;;;12.50;11.00;;;;;20.95;55.20;100330.31;5014503;28;45591;-82
2022/06/19 09:36:51;;;;;;;;;14.00;12.25;;;;;21.04;55.12;100338.25;5016318;28;45806;-83
2022/06/19 09:39:22;;;;;;;;;14.50;12.75;;;;;21.11;54.88;100347.97;4998325;28;48513;-83
2022/06/19 09:41:50;;;;;;;;;13.25;11.75;;;;;21.19;54.60;100341.75;5016465;28;46156;-83
2022/06/19 09:44:22;;;;;;;;;13.00;12.75;;;;;21.28;54.76;100340.66;5016013;28;45637;-84
2022/06/19 09:46:54;;;;;;;;;10.75;10.00;;;;;21.29;54.29;100331.66;5016754;28;45616;-83
2022/06/19 09:49:28;;;;;;;;;11.75;10.75;;;;;21.34;54.10;100337.25;5031407;28;47750;-83
2022/06/19 09:52:09;;;;;;;;;13.25;11.00;;;;;21.34;53.80;100337.25;5016060;28;45658;-83
2022/06/19 09:54:43;;;;;;;;;13.75;10.75;;;;;21.33;54.13;100335.59;5016411;28;45520;-82
2022/06/19 09:57:19;;;;;;;;;11.50;10.75;;;;;21.26;53.76;100342.69;5016276;28;45660;-82
2022/06/19 09:59:50;;;;;;;;;11.50;10.00;;;;;21.20;54.41;100348.75;5017450;28;45645;-82
2022/06/19 10:02:57;;;;;;;;;13.00;11.75;;;;;21.13;54.95;100343.28;5015737;28;45975;-82
2022/06/19 10:05:31;;;;;;;;;18.25;14.25;;;;;21.07;55.21;100327.19;5016177;28;45704;-84
2022/06/19 10:08:06;;;;;;;;;17.75;15.25;;;;;21.03;54.80;100323.25;5016420;28;45599;-82
2022/06/19 10:10:46;;;;;;;;;16.50;15.00;;;;;21.02;55.15;100321.59;5015941;28;45574;-82
2022/06/19 10:16:50;;;;;;;;;17.00;15.00;;;;;20.97;55.26;100318.66;5015763;28;45501;-82
2022/06/19 10:19:23;;;;;;;;;19.25;17.00;;;;;20.90;55.50;100311.41;5018288;28;45629;-83
2022/06/19 10:22:16;;;;;;;;;21.25;17.75;;;;;20.90;55.50;100300.75;5016902;28;45820;-83
2022/06/19 10:25:05;;;;;;;;;19.25;17.75;;;;;20.94;55.55;100294.03;5015446;28;45904;-82
2022/06/19 10:27:40;;;;;;;;;17.75;17.75;;;;;20.90;55.66;100286.59;5015965;28;45644;-82
2022/06/19 10:33:54;;;;;;;;;22.00;18.00;;;;;20.86;55.94;100286.16;5015099;28;45705;-82
2022/06/19 10:37:01;;;;;;;;;21.50;18.00;;;;;20.82;56.18;100289.38;5016018;28;45862;-83
2022/06/19 10:39:35;;;;;;;;;18.00;16.00;;;;;20.90;56.52;100278.59;4955371;28;45919;-83
2022/06/19 10:42:36;;;;;;;;;18.50;17.75;;;;;20.91;56.35;100290.91;4939378;28;45955;-82
2022/06/19 10:48:46;;;;;;;;;22.25;16.25;;;;;20.92;56.39;100292.59;4917441;28;45612;-85
2022/06/19 10:51:42;;;;;;;;;18.75;18.00;;;;;20.93;56.14;100289.75;4904031;28;45791;-87
2022/06/19 10:54:52;;;;;;;;;18.75;18.50;;;;;20.95;56.49;100295.69;4919664;28;45630;-83
2022/06/19 10:57:35;;;;;;;;;16.50;15.00;;;;;20.99;56.77;100292.69;4881404;29;45738;-86
2022/06/19 11:00:01;;;;;;;;;19.00;17.50;;;;;20.97;56.54;100295.53;4866299;29;46594;-85
2022/06/19 11:06:05;;;;;;;;;24.50;20.75;;;;;21.05;56.62;100297.28;4878842;29;45735;-88
2022/06/19 11:08:35;;;;;;;;;15.00;13.25;;;;;21.06;56.72;100301.56;4879146;29;45675;-83
2022/06/19 11:11:02;;;;;;;;;19.25;17.75;;;;;21.02;56.54;100278.97;4879741;29;46030;-89
2022/06/19 11:17:05;;;;;;;;;21.50;20.25;;;;;21.16;57.05;100294.97;4870300;29;45478;-83
2022/06/19 11:19:43;;;;;;;;;21.00;16.75;;;;;21.14;56.73;100302.34;4863192;29;46622;-89
2022/06/19 11:22:27;;;;;;;;;23.00;20.75;;;;;21.22;56.66;100325.38;4910609;28;46113;-87
2022/06/19 11:24:53;;;;;;;;;21.75;19.75;;;;;21.25;56.72;100309.06;4943802;28;45794;-86
2022/06/19 11:27:24;;;;;;;;;17.00;15.25;;;;;21.26;57.04;100300.88;4940287;28;45625;-88
2022/06/19 11:33:14;;;;;;;;;19.75;19.00;;;;;21.21;56.69;100259.81;4959686;28;46067;-87
2022/06/19 11:35:56;;;;;;;;;19.25;18.25;;;;;21.33;56.79;100300.94;5016988;28;45728;-84
2022/06/19 11:38:44;;;;;;;;;21.25;17.50;;;;;21.30;56.45;100302.16;5017068;28;45835;-84
2022/06/19 11:41:21;;;;;;;;;16.75;16.00;;;;;21.32;56.22;100318.75;5016095;28;46376;-87
2022/06/19 11:50:33;;;;;;;;;16.00;13.75;;;;;21.31;56.56;100294.97;5013986;28;45629;-83
2022/06/19 11:53:11;;;;;;;;;17.00;16.75;;;;;21.31;56.70;100252.34;5014980;28;46703;-84
2022/06/19 11:55:57;;;;;;;;;15.75;15.00;;;;;21.29;56.69;100251.69;5014178;28;45575;-78
2022/06/19 11:58:36;;;;;;;;;15.00;13.50;;;;;21.22;56.79;100229.47;5012083;28;45691;-82
2022/06/19 12:01:17;;;;;;;;;15.75;14.50;;;;;21.25;56.37;100226.44;5028624;28;46404;-83
2022/06/19 12:03:56;;;;;;;;;15.25;13.75;;;;;21.29;55.75;100267.69;4996341;28;48373;-81
2022/06/19 12:06:45;;;;;;;;;13.75;12.00;;;;;21.30;56.28;100238.19;5013794;28;45927;-83
2022/06/19 12:09:42;;;;;;;;;16.25;16.00;;;;;21.25;55.98;100213.94;5013726;28;45698;-82
2022/06/19 12:12:18;;;;;;;;;19.00;18.00;;;;;21.31;55.76;100220.34;5014274;28;45622;-83
2022/06/19 12:18:16;;;;;;;;;12.50;12.00;;;;;21.34;55.61;100211.97;5013744;28;45790;-83
2022/06/19 12:20:42;;;;;;;;;13.00;11.00;;;;;21.32;55.13;100196.16;5013286;28;45726;-83
2022/06/19 12:23:17;;;;;;;;;11.25;11.00;;;;;21.46;55.02;100212.31;4996067;28;45658;-86
2022/06/19 12:25:50;;;;;;;;;11.75;10.75;;;;;21.51;55.06;100191.25;5014852;28;45704;-85
2022/06/19 12:28:23;;;;;;;;;10.00;8.50;;;;;21.56;54.50;100192.31;4996539;28;47210;-83
2022/06/19 12:34:27;;;;;;;;;11.75;10.50;;;;;21.67;53.87;100218.47;5014020;28;45695;-86
2022/06/19 12:36:54;;;;;;;;;9.25;8.50;;;;;21.72;53.52;100220.56;5013944;28;45740;-82
2022/06/19 12:39:24;;;;;;;;;10.25;10.25;;;;;21.78;53.30;100239.31;5014023;28;45893;-82
2022/06/19 12:42:11;;;;;;;;;12.50;10.00;;;;;21.90;53.42;100217.47;5013881;28;45798;-84
2022/06/19 12:45:20;;;;;;;;;11.25;10.00;;;;;21.94;53.03;100195.56;5015781;28;45641;-91
2022/06/19 12:48:12;;;;;;;;;10.00;9.00;;;;;22.06;53.38;100172.69;5032541;28;47311;-88
2022/06/19 12:50:53;;;;;;;;;9.75;9.50;;;;;22.11;53.23;100166.78;5031800;28;47240;-89
2022/06/19 12:57:36;;;;;;;;;10.00;8.00;;;;;22.47;51.88;100180.75;5335918;22;47373;-91
2022/06/19 13:00:17;;;;;;;;;10.00;8.00;;;;;22.57;52.00;100183.06;5050475;28;47191;-85
2022/06/19 13:03:01;;;;;;;;;11.25;10.00;;;;;22.69;51.99;100208.19;5033815;28;46938;-87
2022/06/19 13:05:48;;;;;;;;;15.25;10.75;;;;;22.80;51.60;100194.31;5050080;28;46489;-83
2022/06/19 13:08:55;;;;;;;;;8.00;8.00;;;;;22.89;51.84;100179.75;5047230;28;46046;-85
2022/06/19 13:11:39;;;;;;;;;8.50;7.75;;;;;23.06;51.11;100187.44;5001233;28;47442;-89